Time;durP1;ratioP1;P1;durP2;ratioP2;P2;SDS_P1;SDS_P2;PMS_P1;PMS_P2;Temp;Humidity;BMP_temperature;BMP_pressure;BME280_temperature;BME280_humidity;BME280_pressure;Samples;Min_cycle;Max_cycle;Signal;HPM_P1;HPM_P2
2022/11/10 00:02:15;;;;;;;;;;;8.70;99.90;;;;;;4990187;28;20284;-68
2022/11/10 00:04:40;;;;;;;;;;;9.00;99.90;;;;;;4989484;28;19922;-68
2022/11/10 00:07:06;;;;;;;;;;;8.60;99.90;;;;;;4990471;28;19922;-68
2022/11/10 00:09:31;;;;;;;;;;;8.60;99.90;;;;;;4988417;28;19967;-68
2022/11/10 00:11:57;;;;;;;;;;;8.50;99.90;;;;;;4989702;28;20316;-68
2022/11/10 00:17:08;;;;;;;;;;;8.40;99.90;;;;;;4990942;28;19952;-68
2022/11/10 00:19:34;;;;;;;;;;;8.40;99.90;;;;;;4990153;28;20395;-68
2022/11/10 00:22:00;;;;;;;;;;;8.40;99.90;;;;;;4990486;28;20023;-68
2022/11/10 00:24:26;;;;;;;;;;;8.40;99.90;;;;;;4987694;28;20014;-68
2022/11/10 00:26:52;;;;;;;;;;;8.30;99.90;;;;;;4987318;28;20368;-68
2022/11/10 00:29:27;;;;;;;;;;;8.30;99.90;;;;;;4988887;28;20004;-68
2022/11/10 00:31:53;;;;;;;;;;;8.20;99.90;;;;;;4989245;28;19922;-68
2022/11/10 00:34:18;;;;;;;;;;;8.30;99.90;;;;;;4988206;28;20033;-67
2022/11/10 00:36:44;;;;;;;;;;;8.20;99.90;;;;;;4989172;28;20369;-68
2022/11/10 00:39:10;;;;;;;;;;;8.40;99.90;;;;;;4985332;28;19925;-67
2022/11/10 00:41:35;;;;;;;;;;;8.20;99.90;;;;;;4989971;28;19928;-67
2022/11/10 00:44:01;;;;;;;;;;;8.20;99.90;;;;;;4982938;28;19925;-67
2022/11/10 00:46:26;;;;;;;;;;;8.20;99.90;;;;;;4988268;28;19922;-67
2022/11/10 00:48:52;;;;;;;;;;;8.40;99.90;;;;;;4989150;28;19918;-68
2022/11/10 00:51:27;;;;;;;;;;;8.50;99.90;;;;;;4988486;28;19922;-67
2022/11/10 00:53:53;;;;;;;;;;;8.50;99.90;;;;;;4986110;28;20369;-67
2022/11/10 00:56:20;;;;;;;;;;;8.50;99.90;;;;;;4989577;28;19918;-68
2022/11/10 00:58:45;;;;;;;;;;;9.40;99.90;;;;;;4989722;28;19925;-68
2022/11/10 01:01:11;;;;;;;;;;;8.60;99.90;;;;;;4989470;28;19928;-67
2022/11/10 01:03:37;;;;;;;;;;;8.60;99.90;;;;;;4987577;28;19925;-68
2022/11/10 01:06:03;;;;;;;;;;;8.50;99.90;;;;;;4986424;28;20392;-68
2022/11/10 01:08:29;;;;;;;;;;;8.70;99.90;;;;;;4990065;28;20022;-68
2022/11/10 01:11:01;;;;;;;;;;;8.40;99.90;;;;;;4987732;28;19984;-68
2022/11/10 01:13:27;;;;;;;;;;;8.40;99.90;;;;;;4988664;28;19928;-67
2022/11/10 01:15:52;;;;;;;;;;;8.30;99.90;;;;;;4989426;28;20032;-67
2022/11/10 01:18:18;;;;;;;;;;;8.20;99.90;;;;;;4983617;28;20411;-67
2022/11/10 01:20:43;;;;;;;;;;;8.20;99.90;;;;;;4988635;28;19921;-67
2022/11/10 01:23:09;;;;;;;;;;;8.10;99.90;;;;;;4989789;28;19922;-67
2022/11/10 01:25:34;;;;;;;;;;;8.10;99.90;;;;;;4988004;28;19922;-67
2022/11/10 01:28:00;;;;;;;;;;;8.10;99.90;;;;;;4989866;28;19929;-68
2022/11/10 01:30:25;;;;;;;;;;;8.50;99.90;;;;;;4989321;28;20449;-67
2022/11/10 01:32:51;;;;;;;;;;;8.00;99.90;;;;;;4987488;28;19930;-67
2022/11/10 01:35:16;;;;;;;;;;;8.00;99.90;;;;;;4987400;28;19922;-68
2022/11/10 01:37:45;;;;;;;;;;;8.00;99.90;;;;;;4988571;28;19929;-68
2022/11/10 01:40:11;;;;;;;;;;;8.00;99.90;;;;;;4988163;28;19932;-67
2022/11/10 01:42:56;;;;;;;;;;;8.00;99.90;;;;;;4987511;28;19925;-67
2022/11/10 01:45:22;;;;;;;;;;;8.00;99.90;;;;;;4987064;28;19957;-68
2022/11/10 01:47:52;;;;;;;;;;;8.10;99.90;;;;;;4988203;28;19980;-68
2022/11/10 01:50:19;;;;;;;;;;;8.10;99.90;;;;;;4989511;28;19922;-67
2022/11/10 01:52:46;;;;;;;;;;;8.10;99.90;;;;;;4989079;28;19918;-68
2022/11/10 01:55:12;;;;;;;;;;;8.10;99.90;;;;;;4989515;28;19956;-67
2022/11/10 01:57:42;;;;;;;;;;;8.60;99.90;;;;;;4988378;28;19922;-67
2022/11/10 02:00:08;;;;;;;;;;;8.10;99.90;;;;;;4989112;28;20285;-67
2022/11/10 02:02:36;;;;;;;;;;;8.10;99.90;;;;;;4988891;28;19924;-67
2022/11/10 02:05:03;;;;;;;;;;;8.20;99.90;;;;;;4987525;28;20324;-67
2022/11/10 02:07:30;;;;;;;;;;;9.00;99.90;;;;;;4984871;28;20444;-67
2022/11/10 02:09:56;;;;;;;;;;;8.30;99.90;;;;;;4987901;28;19929;-67
2022/11/10 02:12:35;;;;;;;;;;;8.40;99.90;;;;;;4992033;28;19922;-67
2022/11/10 02:15:04;;;;;;;;;;;8.50;99.90;;;;;;4992311;28;19926;-66
2022/11/10 02:17:30;;;;;;;;;;;8.40;99.90;;;;;;4986804;28;19925;-67
2022/11/10 02:19:59;;;;;;;;;;;8.50;99.90;;;;;;4992663;28;19922;-68
2022/11/10 02:22:24;;;;;;;;;;;8.50;99.90;;;;;;4987511;28;19921;-68
2022/11/10 02:24:50;;;;;;;;;;;8.90;99.90;;;;;;4992442;28;20020;-68
2022/11/10 02:27:15;;;;;;;;;;;8.60;99.90;;;;;;4992505;28;20020;-68
2022/11/10 02:29:41;;;;;;;;;;;8.60;99.90;;;;;;4990613;28;19956;-68
2022/11/10 02:32:06;;;;;;;;;;;8.70;99.90;;;;;;4991865;28;19921;-68
2022/11/10 02:34:32;;;;;;;;;;;8.70;99.90;;;;;;4990655;28;19926;-68
2022/11/10 02:36:57;;;;;;;;;;;8.60;99.90;;;;;;4991665;28;19922;-68
2022/11/10 02:39:23;;;;;;;;;;;8.60;99.90;;;;;;4992259;28;19926;-68
2022/11/10 02:41:48;;;;;;;;;;;8.60;99.90;;;;;;4988203;28;19968;-68
2022/11/10 02:44:14;;;;;;;;;;;9.20;99.90;;;;;;4991733;28;19928;-68
2022/11/10 02:46:39;;;;;;;;;;;8.70;99.90;;;;;;4990569;28;19922;-68
2022/11/10 02:49:08;;;;;;;;;;;8.70;99.90;;;;;;4991718;28;19925;-68
2022/11/10 02:51:33;;;;;;;;;;;8.80;99.90;;;;;;4989499;28;20258;-68
2022/11/10 02:53:59;;;;;;;;;;;8.80;99.90;;;;;;4991834;28;20327;-69
2022/11/10 02:56:25;;;;;;;;;;;8.70;99.90;;;;;;4990866;28;19922;-68
2022/11/10 02:58:50;;;;;;;;;;;8.70;99.90;;;;;;4991000;28;19926;-68
2022/11/10 03:01:15;;;;;;;;;;;8.70;99.90;;;;;;4988117;28;19921;-68
2022/11/10 03:03:41;;;;;;;;;;;8.80;99.90;;;;;;4991172;28;20285;-68
2022/11/10 03:06:07;;;;;;;;;;;8.90;99.90;;;;;;4990933;28;19929;-68
2022/11/10 03:08:32;;;;;;;;;;;9.00;99.90;;;;;;4991166;28;20361;-68
2022/11/10 03:10:58;;;;;;;;;;;9.50;99.90;;;;;;4988858;28;19917;-68
2022/11/10 03:13:24;;;;;;;;;;;8.70;99.90;;;;;;4988132;28;19922;-68
2022/11/10 03:15:49;;;;;;;;;;;9.00;99.90;;;;;;4991498;28;20453;-68
2022/11/10 03:18:16;;;;;;;;;;;9.20;99.90;;;;;;4991614;28;20020;-68
2022/11/10 03:20:45;;;;;;;;;;;9.40;99.90;;;;;;4990450;28;20012;-68
2022/11/10 03:23:11;;;;;;;;;;;8.80;99.90;;;;;;4990273;28;20028;-68
2022/11/10 03:25:37;;;;;;;;;;;8.80;99.90;;;;;;4986273;28;19936;-68
2022/11/10 03:28:03;;;;;;;;;;;8.80;99.90;;;;;;4991972;28;19922;-68
2022/11/10 03:30:28;;;;;;;;;;;8.80;99.90;;;;;;4991024;28;19924;-68
2022/11/10 03:32:54;;;;;;;;;;;8.80;99.90;;;;;;4991426;28;19944;-68
2022/11/10 03:35:19;;;;;;;;;;;9.10;99.90;;;;;;4989787;28;19974;-68
2022/11/10 03:37:45;;;;;;;;;;;9.00;99.90;;;;;;4990298;28;19917;-68
2022/11/10 03:40:11;;;;;;;;;;;9.00;99.90;;;;;;4988751;28;19926;-68
2022/11/10 03:42:40;;;;;;;;;;;8.90;99.90;;;;;;4989608;28;20285;-68
2022/11/10 03:45:06;;;;;;;;;;;9.00;99.90;;;;;;4992684;28;20300;-68
2022/11/10 03:47:31;;;;;;;;;;;9.00;99.90;;;;;;4990446;28;19926;-69
2022/11/10 03:49:57;;;;;;;;;;;9.00;99.90;;;;;;4990207;28;20017;-68
2022/11/10 03:52:22;;;;;;;;;;;9.30;99.90;;;;;;4990384;28;19973;-68
2022/11/10 03:54:48;;;;;;;;;;;9.00;99.90;;;;;;4989987;28;19976;-68
2022/11/10 03:57:13;;;;;;;;;;;9.00;99.90;;;;;;4989728;28;19921;-68
2022/11/10 03:59:39;;;;;;;;;;;9.00;99.90;;;;;;4989621;28;19928;-68
2022/11/10 04:02:04;;;;;;;;;;;9.00;99.90;;;;;;4991031;28;19929;-68
2022/11/10 04:09:58;;;;;;;;;;;9.10;99.90;;;;;;4990749;28;19922;-68
2022/11/10 04:18:19;;;;;;;;;;;9.10;99.90;;;;;;4989162;28;20422;-68
2022/11/10 04:20:47;;;;;;;;;;;9.00;99.90;;;;;;4986744;28;19926;-68
2022/11/10 04:23:25;;;;;;;;;;;9.10;99.90;;;;;;4989463;28;19922;-68
2022/11/10 04:28:36;;;;;;;;;;;9.20;99.90;;;;;;4986898;28;19926;-68
2022/11/10 04:31:01;;;;;;;;;;;9.10;99.90;;;;;;4991059;28;19922;-66
2022/11/10 04:33:27;;;;;;;;;;;9.30;99.90;;;;;;4988915;28;19926;-68
2022/11/10 04:35:52;;;;;;;;;;;9.20;99.90;;;;;;4985048;28;19922;-67
2022/11/10 04:38:18;;;;;;;;;;;9.20;99.90;;;;;;4988055;28;19975;-67
2022/11/10 04:40:43;;;;;;;;;;;9.30;99.90;;;;;;4987647;28;19968;-67
2022/11/10 04:43:09;;;;;;;;;;;9.30;99.90;;;;;;4987887;28;19928;-67
2022/11/10 04:45:34;;;;;;;;;;;9.80;99.90;;;;;;4989803;28;19961;-66
2022/11/10 04:48:00;;;;;;;;;;;9.50;99.90;;;;;;4990324;28;20381;-69
2022/11/10 04:50:25;;;;;;;;;;;9.40;99.90;;;;;;4988010;28;19963;-68
2022/11/10 04:52:51;;;;;;;;;;;9.40;99.90;;;;;;4990061;28;19926;-68
2022/11/10 04:55:16;;;;;;;;;;;9.70;99.90;;;;;;4988916;28;19921;-67
2022/11/10 04:57:42;;;;;;;;;;;9.50;99.90;;;;;;4986605;28;19924;-68
2022/11/10 05:00:09;;;;;;;;;;;9.60;99.90;;;;;;4988743;28;19929;-67
2022/11/10 05:02:35;;;;;;;;;;;9.50;99.90;;;;;;4989480;28;20437;-68
2022/11/10 05:05:01;;;;;;;;;;;9.50;99.90;;;;;;4989554;28;20023;-69
2022/11/10 05:07:30;;;;;;;;;;;10.10;99.90;;;;;;4988307;28;19922;-67
2022/11/10 05:09:55;;;;;;;;;;;9.40;99.90;;;;;;4987371;28;20784;-67
2022/11/10 05:12:21;;;;;;;;;;;9.40;99.90;;;;;;4989582;28;19926;-69
2022/11/10 05:14:46;;;;;;;;;;;9.40;99.90;;;;;;4988833;28;19991;-69
2022/11/10 05:17:13;;;;;;;;;;;9.40;99.90;;;;;;4988042;28;19949;-69
2022/11/10 05:19:38;;;;;;;;;;;9.40;99.90;;;;;;4988872;28;19925;-69
2022/11/10 05:22:05;;;;;;;;;;;9.40;99.90;;;;;;4987046;28;19928;-69
2022/11/10 05:24:31;;;;;;;;;;;9.40;99.90;;;;;;4987858;28;19926;-66
2022/11/10 05:26:56;;;;;;;;;;;9.40;99.90;;;;;;4989702;28;19922;-68
2022/11/10 05:29:22;;;;;;;;;;;9.40;99.90;;;;;;4989284;28;20265;-68
2022/11/10 05:31:47;;;;;;;;;;;9.40;99.90;;;;;;4987964;28;19922;-67
2022/11/10 05:34:13;;;;;;;;;;;9.40;99.90;;;;;;4984137;28;20016;-67
2022/11/10 05:36:38;;;;;;;;;;;9.30;99.90;;;;;;4987897;28;19922;-68
2022/11/10 05:39:04;;;;;;;;;;;9.40;99.90;;;;;;4988934;28;19922;-68
2022/11/10 05:41:30;;;;;;;;;;;9.40;99.90;;;;;;4989788;28;19922;-68
2022/11/10 05:43:55;;;;;;;;;;;10.00;99.90;;;;;;4989594;28;19922;-69
2022/11/10 05:46:21;;;;;;;;;;;9.30;99.90;;;;;;4988986;28;19933;-69
2022/11/10 05:48:46;;;;;;;;;;;9.30;99.90;;;;;;4991705;28;20238;-68
2022/11/10 05:51:12;;;;;;;;;;;9.40;99.90;;;;;;4992076;28;19926;-71
2022/11/10 05:53:37;;;;;;;;;;;9.60;99.90;;;;;;4991589;28;19922;-71
2022/11/10 05:56:03;;;;;;;;;;;9.30;99.90;;;;;;4993114;28;19921;-69
2022/11/10 05:58:28;;;;;;;;;;;9.40;99.90;;;;;;4992521;28;19922;-67
2022/11/10 06:00:54;;;;;;;;;;;9.30;99.90;;;;;;4991717;28;19921;-67
2022/11/10 06:03:19;;;;;;;;;;;9.30;99.90;;;;;;4992448;28;20008;-69
2022/11/10 06:05:45;;;;;;;;;;;9.40;99.90;;;;;;4988186;28;19925;-68
2022/11/10 06:08:11;;;;;;;;;;;9.40;99.90;;;;;;4995401;28;19926;-69
2022/11/10 06:10:37;;;;;;;;;;;9.40;99.90;;;;;;4987942;28;19925;-71
2022/11/10 06:13:03;;;;;;;;;;;9.30;99.90;;;;;;4993886;28;19922;-67
2022/11/10 06:15:28;;;;;;;;;;;9.40;99.90;;;;;;4992678;28;19975;-67
2022/11/10 06:17:54;;;;;;;;;;;9.40;99.90;;;;;;4993004;28;19921;-70
2022/11/10 06:20:20;;;;;;;;;;;9.30;99.90;;;;;;4990266;28;19984;-65
2022/11/10 06:23:05;;;;;;;;;;;9.40;99.90;;;;;;4991876;28;19925;-66
2022/11/10 06:25:31;;;;;;;;;;;9.40;99.90;;;;;;4990643;28;19929;-68
2022/11/10 06:27:57;;;;;;;;;;;9.40;99.90;;;;;;4991765;28;20381;-67
2022/11/10 06:30:23;;;;;;;;;;;9.40;99.90;;;;;;4986109;28;19924;-67
2022/11/10 06:32:49;;;;;;;;;;;9.50;99.90;;;;;;4990940;28;19937;-67
2022/11/10 06:35:14;;;;;;;;;;;9.60;99.90;;;;;;4990392;28;20497;-68
2022/11/10 06:37:40;;;;;;;;;;;9.70;99.90;;;;;;4990443;28;19922;-66
2022/11/10 06:40:07;;;;;;;;;;;10.00;99.90;;;;;;4990107;28;19929;-66
2022/11/10 06:42:33;;;;;;;;;;;9.70;99.90;;;;;;4989752;28;19922;-65
2022/11/10 06:44:58;;;;;;;;;;;9.70;99.90;;;;;;4988636;28;19966;-67
2022/11/10 06:47:24;;;;;;;;;;;10.20;99.90;;;;;;4990814;28;20361;-66
2022/11/10 06:49:49;;;;;;;;;;;9.80;99.90;;;;;;4991583;28;20387;-66
2022/11/10 06:52:15;;;;;;;;;;;9.90;99.90;;;;;;4992403;28;19945;-67
2022/11/10 06:54:40;;;;;;;;;;;9.90;99.90;;;;;;4991913;28;19932;-66
2022/11/10 06:57:06;;;;;;;;;;;9.90;99.90;;;;;;4991391;28;20289;-68
2022/11/10 06:59:32;;;;;;;;;;;10.00;99.90;;;;;;4986413;28;19952;-66
2022/11/10 07:02:00;;;;;;;;;;;10.00;99.90;;;;;;4989785;28;19964;-66
2022/11/10 07:04:30;;;;;;;;;;;10.00;99.90;;;;;;4990088;28;19922;-67
2022/11/10 07:06:56;;;;;;;;;;;10.00;99.90;;;;;;4987276;28;19928;-68
2022/11/10 07:09:22;;;;;;;;;;;10.00;99.90;;;;;;4988384;28;19926;-68
2022/11/10 07:11:48;;;;;;;;;;;10.00;99.90;;;;;;4990962;28;20291;-70
2022/11/10 07:14:14;;;;;;;;;;;10.10;99.90;;;;;;4991471;28;19932;-68
2022/11/10 07:16:39;;;;;;;;;;;10.10;99.90;;;;;;4986792;28;19944;-68
2022/11/10 07:19:05;;;;;;;;;;;10.10;99.90;;;;;;4984725;28;19964;-66
2022/11/10 07:21:30;;;;;;;;;;;10.30;99.90;;;;;;4989204;28;19922;-66
2022/11/10 07:23:56;;;;;;;;;;;10.20;99.90;;;;;;4986379;28;19922;-66
2022/11/10 07:26:21;;;;;;;;;;;10.10;99.90;;;;;;4991205;28;20296;-67
2022/11/10 07:28:47;;;;;;;;;;;10.10;99.90;;;;;;4990977;28;19987;-65
2022/11/10 07:31:12;;;;;;;;;;;10.10;99.90;;;;;;4989303;28;19999;-66
2022/11/10 07:33:38;;;;;;;;;;;10.10;99.90;;;;;;4981916;28;19922;-65
2022/11/10 07:36:04;;;;;;;;;;;10.30;99.90;;;;;;4985351;28;19928;-66
2022/11/10 07:38:29;;;;;;;;;;;10.30;99.90;;;;;;5008862;28;19929;-66
2022/11/10 07:40:55;;;;;;;;;;;10.50;99.90;;;;;;4989206;28;19961;-67
2022/11/10 07:43:22;;;;;;;;;;;10.40;99.90;;;;;;4989418;28;19925;-67
2022/11/10 07:45:48;;;;;;;;;;;10.60;99.90;;;;;;4990198;28;19929;-66
2022/11/10 07:48:13;;;;;;;;;;;10.60;99.90;;;;;;4990632;28;19929;-66
2022/11/10 07:50:39;;;;;;;;;;;10.80;99.90;;;;;;4990597;28;19921;-67
2022/11/10 07:53:06;;;;;;;;;;;11.00;99.90;;;;;;4990888;28;19945;-66
2022/11/10 07:55:32;;;;;;;;;;;10.80;99.90;;;;;;4990903;28;19957;-66
2022/11/10 07:57:58;;;;;;;;;;;11.10;99.90;;;;;;4985702;28;19929;-66
2022/11/10 08:00:23;;;;;;;;;;;11.00;99.90;;;;;;4990235;28;20066;-67
2022/11/10 08:02:49;;;;;;;;;;;11.10;99.90;;;;;;4990778;28;19925;-67
2022/11/10 08:05:15;;;;;;;;;;;11.30;99.90;;;;;;4990466;28;20295;-67
2022/11/10 08:07:41;;;;;;;;;;;11.30;99.90;;;;;;4990126;28;19921;-68
2022/11/10 08:10:07;;;;;;;;;;;11.40;99.90;;;;;;4990810;28;19922;-68
2022/11/10 08:12:33;;;;;;;;;;;11.30;99.90;;;;;;4987997;28;19922;-67
2022/11/10 08:14:58;;;;;;;;;;;11.20;99.90;;;;;;4990882;28;19922;-67
2022/11/10 08:17:24;;;;;;;;;;;11.30;99.90;;;;;;4990342;28;19952;-67
2022/11/10 08:19:49;;;;;;;;;;;11.20;99.90;;;;;;4987878;28;20432;-67
2022/11/10 08:22:15;;;;;;;;;;;11.30;99.90;;;;;;4989058;28;19918;-67
2022/11/10 08:24:41;;;;;;;;;;;11.30;99.90;;;;;;4979587;28;19922;-67
2022/11/10 08:27:06;;;;;;;;;;;11.20;99.90;;;;;;4986995;28;19918;-67
2022/11/10 08:29:32;;;;;;;;;;;11.70;99.90;;;;;;4989081;28;19922;-67
2022/11/10 08:31:57;;;;;;;;;;;11.30;99.90;;;;;;4991008;28;19922;-67
2022/11/10 08:34:23;;;;;;;;;;;11.50;99.90;;;;;;4986759;28;19925;-68
2022/11/10 08:36:52;;;;;;;;;;;11.70;99.90;;;;;;4988994;28;19921;-69
2022/11/10 08:39:18;;;;;;;;;;;12.10;99.90;;;;;;4988962;28;20013;-66
2022/11/10 08:41:44;;;;;;;;;;;12.40;99.90;;;;;;4989781;28;20016;-68
2022/11/10 08:44:09;;;;;;;;;;;12.70;99.90;;;;;;4986318;28;19945;-68
2022/11/10 08:46:35;;;;;;;;;;;12.90;99.90;;;;;;4989619;28;19921;-68
2022/11/10 08:49:00;;;;;;;;;;;13.40;99.90;;;;;;4989789;28;19926;-68
2022/11/10 08:51:26;;;;;;;;;;;13.90;99.90;;;;;;4990311;28;19925;-68
2022/11/10 08:53:51;;;;;;;;;;;14.90;99.90;;;;;;4990281;28;19929;-68
2022/11/10 08:56:20;;;;;;;;;;;15.50;99.90;;;;;;4988121;28;20261;-68
2022/11/10 08:58:50;;;;;;;;;;;15.90;99.90;;;;;;4985401;28;19961;-68
2022/11/10 09:01:16;;;;;;;;;;;15.80;99.90;;;;;;4981656;28;19929;-68
2022/11/10 09:03:42;;;;;;;;;;;15.70;99.90;;;;;;4988177;28;19921;-68
2022/11/10 09:06:10;;;;;;;;;;;15.50;99.90;;;;;;4989952;28;19928;-68
2022/11/10 09:08:37;;;;;;;;;;;15.10;99.90;;;;;;4988870;28;19918;-68
2022/11/10 09:11:05;;;;;;;;;;;15.00;99.90;;;;;;4989913;28;19957;-68
2022/11/10 09:13:31;;;;;;;;;;;14.70;99.90;;;;;;4989309;28;20012;-68
2022/11/10 09:16:03;;;;;;;;;;;14.40;99.90;;;;;;4988480;28;20013;-68
2022/11/10 09:18:29;;;;;;;;;;;14.40;99.90;;;;;;4989489;28;20016;-68
2022/11/10 09:20:55;;;;;;;;;;;14.60;99.90;;;;;;4989843;28;20009;-68
2022/11/10 09:23:21;;;;;;;;;;;15.60;99.90;;;;;;4984760;28;20280;-77
2022/11/10 09:25:51;;;;;;;;;;;16.80;99.90;;;;;;4989740;28;19975;-69
2022/11/10 09:28:17;;;;;;;;;;;17.90;99.90;;;;;;4989287;28;20009;-69
2022/11/10 09:30:48;;;;;;;;;;;18.00;99.90;;;;;;4989495;28;19976;-68
2022/11/10 09:33:14;;;;;;;;;;;17.50;99.90;;;;;;4986012;28;19922;-68
2022/11/10 09:35:40;;;;;;;;;;;16.80;99.90;;;;;;4989057;28;19922;-68
2022/11/10 09:38:05;;;;;;;;;;;16.40;99.90;;;;;;4989132;28;19925;-68
2022/11/10 09:40:31;;;;;;;;;;;16.30;99.90;;;;;;4989171;28;19925;-67
2022/11/10 09:42:59;;;;;;;;;;;16.10;99.90;;;;;;4985636;28;20250;-68
2022/11/10 09:45:34;;;;;;;;;;;16.00;99.90;;;;;;4983461;28;19966;-67
2022/11/10 09:48:16;;;;;;;;;;;15.70;99.90;;;;;;4988131;28;20008;-69
2022/11/10 09:51:00;;;;;;;;;;;15.50;99.90;;;;;;4985138;28;19922;-67
2022/11/10 09:54:01;;;;;;;;;;;15.00;99.90;;;;;;4987371;28;20434;-68
2022/11/10 09:56:29;;;;;;;;;;;14.90;99.90;;;;;;4913308;28;19945;-68
2022/11/10 09:58:55;;;;;;;;;;;14.80;99.90;;;;;;4990584;28;19928;-68
2022/11/10 10:01:26;;;;;;;;;;;14.70;99.90;;;;;;4986006;28;19922;-69
2022/11/10 10:03:58;;;;;;;;;;;14.70;99.90;;;;;;4988026;28;19932;-68
2022/11/10 10:06:23;;;;;;;;;;;14.60;99.90;;;;;;4987014;28;19929;-68
2022/11/10 10:08:58;;;;;;;;;;;14.80;99.90;;;;;;4989162;28;19921;-68
2022/11/10 10:11:42;;;;;;;;;;;14.80;99.90;;;;;;4989294;28;19930;-69
2022/11/10 10:14:31;;;;;;;;;;;14.80;99.90;;;;;;4983769;28;19944;-70
2022/11/10 10:16:56;;;;;;;;;;;14.70;99.90;;;;;;4984598;28;19928;-68
2022/11/10 10:19:25;;;;;;;;;;;14.50;99.90;;;;;;5013006;28;19922;-67
2022/11/10 10:22:09;;;;;;;;;;;14.30;99.90;;;;;;4989664;28;20008;-66
2022/11/10 10:24:36;;;;;;;;;;;14.20;99.90;;;;;;4986747;28;19953;-66
2022/11/10 10:27:03;;;;;;;;;;;14.10;99.90;;;;;;4988284;28;19929;-67
2022/11/10 10:29:42;;;;;;;;;;;13.90;99.90;;;;;;4989902;28;19928;-67
2022/11/10 10:32:10;;;;;;;;;;;13.80;99.90;;;;;;4985666;28;20426;-67
2022/11/10 10:34:35;;;;;;;;;;;13.80;99.90;;;;;;4986559;28;19922;-69
2022/11/10 10:37:01;;;;;;;;;;;13.70;99.90;;;;;;4991569;28;19994;-69
2022/11/10 10:39:29;;;;;;;;;;;13.50;99.90;;;;;;4992408;28;19922;-68
2022/11/10 10:41:54;;;;;;;;;;;13.40;99.90;;;;;;4992313;28;19977;-70
2022/11/10 10:44:20;;;;;;;;;;;13.40;99.90;;;;;;4989029;28;19964;-70
2022/11/10 10:46:45;;;;;;;;;;;13.40;99.90;;;;;;4989630;28;19922;-69
2022/11/10 10:49:27;;;;;;;;;;;13.50;99.90;;;;;;4991782;28;19928;-67
2022/11/10 10:52:09;;;;;;;;;;;13.40;99.90;;;;;;4992234;28;19957;-67
2022/11/10 10:54:35;;;;;;;;;;;13.30;99.90;;;;;;4988766;28;19918;-68
2022/11/10 10:57:02;;;;;;;;;;;13.30;99.90;;;;;;4992338;28;20021;-68
2022/11/10 10:59:28;;;;;;;;;;;13.20;99.90;;;;;;4995661;28;19925;-67
2022/11/10 11:01:54;;;;;;;;;;;13.20;99.90;;;;;;4990651;28;19922;-66
2022/11/10 11:04:27;;;;;;;;;;;13.30;99.90;;;;;;4991378;28;19933;-65
2022/11/10 11:06:57;;;;;;;;;;;13.20;99.90;;;;;;4989903;28;20334;-66
2022/11/10 11:09:27;;;;;;;;;;;13.10;99.90;;;;;;4987467;28;20387;-66
2022/11/10 11:12:03;;;;;;;;;;;13.20;99.90;;;;;;4988643;28;19925;-66
2022/11/10 11:14:29;;;;;;;;;;;13.20;99.90;;;;;;4991303;28;19939;-66
2022/11/10 11:16:56;;;;;;;;;;;13.10;99.90;;;;;;5004933;28;19922;-67
2022/11/10 11:19:33;;;;;;;;;;;13.60;99.90;;;;;;5012053;28;19926;-67
2022/11/10 11:22:18;;;;;;;;;;;13.00;99.90;;;;;;4986780;28;19972;-69
2022/11/10 11:25:02;;;;;;;;;;;13.00;99.90;;;;;;4991072;28;19926;-73
2022/11/10 11:27:27;;;;;;;;;;;12.90;99.90;;;;;;4987673;28;20422;-69
2022/11/10 11:30:02;;;;;;;;;;;12.80;99.90;;;;;;4990243;28;19922;-69
2022/11/10 11:32:48;;;;;;;;;;;12.70;99.90;;;;;;4988436;28;19922;-65
2022/11/10 11:35:30;;;;;;;;;;;12.70;99.90;;;;;;4991246;28;19922;-67
2022/11/10 11:38:24;;;;;;;;;;;12.70;99.90;;;;;;4987537;28;19922;-68
2022/11/10 11:40:56;;;;;;;;;;;12.80;99.90;;;;;;4934942;28;19923;-68
2022/11/10 11:43:33;;;;;;;;;;;12.50;99.90;;;;;;4987776;28;19925;-68
2022/11/10 11:46:02;;;;;;;;;;;12.60;99.90;;;;;;4987231;28;20288;-70
2022/11/10 11:48:32;;;;;;;;;;;12.70;99.90;;;;;;4990160;28;19922;-71
2022/11/10 11:51:01;;;;;;;;;;;12.60;99.90;;;;;;4988603;28;20016;-70
2022/11/10 11:53:54;;;;;;;;;;;12.60;99.90;;;;;;4990009;28;19926;-69
2022/11/10 11:56:29;;;;;;;;;;;12.60;99.90;;;;;;4986621;28;20285;-70
2022/11/10 11:58:58;;;;;;;;;;;12.50;99.90;;;;;;4987099;28;19973;-69
2022/11/10 12:01:23;;;;;;;;;;;12.60;99.90;;;;;;4990399;28;19928;-68
2022/11/10 12:03:49;;;;;;;;;;;12.50;99.90;;;;;;4990331;28;20028;-68
2022/11/10 12:06:20;;;;;;;;;;;12.50;99.90;;;;;;4982349;28;19964;-68
2022/11/10 12:08:53;;;;;;;;;;;12.60;99.90;;;;;;4985952;28;19929;-68
2022/11/10 12:11:39;;;;;;;;;;;12.70;99.90;;;;;;4986388;28;19976;-70
2022/11/10 12:14:13;;;;;;;;;;;12.50;99.90;;;;;;4997446;28;19922;-69
2022/11/10 12:16:43;;;;;;;;;;;12.50;99.90;;;;;;4986445;28;19925;-69
2022/11/10 12:19:17;;;;;;;;;;;12.50;99.90;;;;;;5004872;28;19930;-69
2022/11/10 12:21:49;;;;;;;;;;;12.60;99.90;;;;;;4985572;28;19922;-69
2022/11/10 12:24:30;;;;;;;;;;;12.70;99.90;;;;;;5002426;28;19964;-69
2022/11/10 12:26:58;;;;;;;;;;;12.70;99.90;;;;;;4986562;28;20368;-70
2022/11/10 12:29:28;;;;;;;;;;;12.60;99.90;;;;;;4988276;28;20437;-70
2022/11/10 12:31:57;;;;;;;;;;;13.40;99.90;;;;;;4993680;28;19921;-70
2022/11/10 12:34:26;;;;;;;;;;;13.00;99.90;;;;;;4990813;28;20385;-70
2022/11/10 12:36:51;;;;;;;;;;;12.90;99.90;;;;;;5029131;28;19930;-69
2022/11/10 12:39:27;;;;;;;;;;;12.80;99.90;;;;;;5023591;28;19922;-69
2022/11/10 12:41:56;;;;;;;;;;;12.80;99.90;;;;;;4987129;28;19930;-69
2022/11/10 12:44:27;;;;;;;;;;;13.10;99.90;;;;;;5002575;28;19925;-69
2022/11/10 12:46:56;;;;;;;;;;;13.00;99.90;;;;;;4996550;28;19948;-70
2022/11/10 12:49:29;;;;;;;;;;;13.00;99.90;;;;;;5005510;28;20250;-70
2022/11/10 12:51:58;;;;;;;;;;;13.20;99.90;;;;;;5008674;28;20024;-69
2022/11/10 12:54:26;;;;;;;;;;;13.20;99.90;;;;;;5010430;28;19944;-69
2022/11/10 12:56:53;;;;;;;;;;;13.10;99.90;;;;;;5004631;28;19968;-68
2022/11/10 12:59:19;;;;;;;;;;;13.10;99.90;;;;;;5007506;28;19921;-69
2022/11/10 13:01:45;;;;;;;;;;;13.10;99.90;;;;;;5006703;28;19929;-69
2022/11/10 13:04:13;;;;;;;;;;;13.20;99.90;;;;;;5007232;28;20011;-70
2022/11/10 13:06:44;;;;;;;;;;;13.20;99.90;;;;;;5021880;28;19924;-69
2022/11/10 13:09:20;;;;;;;;;;;13.30;99.90;;;;;;5001374;28;20296;-69
2022/11/10 13:12:02;;;;;;;;;;;13.50;99.90;;;;;;4983486;28;20042;-68
2022/11/10 13:14:28;;;;;;;;;;;13.40;99.90;;;;;;5013148;28;19929;-69
2022/11/10 13:16:55;;;;;;;;;;;13.40;99.90;;;;;;5011353;28;20343;-69
2022/11/10 13:19:23;;;;;;;;;;;13.60;99.90;;;;;;5004553;28;20385;-69
2022/11/10 13:21:49;;;;;;;;;;;13.60;99.90;;;;;;5010317;28;19928;-69
2022/11/10 13:24:24;;;;;;;;;;;13.40;99.90;;;;;;4994768;28;20000;-69
2022/11/10 13:26:51;;;;;;;;;;;13.60;99.90;;;;;;5002447;28;19964;-69
2022/11/10 13:29:33;;;;;;;;;;;13.70;99.90;;;;;;4996583;28;19929;-69
2022/11/10 13:32:14;;;;;;;;;;;13.60;99.90;;;;;;4996969;28;19922;-69
2022/11/10 13:34:40;;;;;;;;;;;13.60;99.90;;;;;;5004083;28;19920;-69
2022/11/10 13:37:24;;;;;;;;;;;13.60;99.90;;;;;;4999101;28;19930;-68
2022/11/10 13:39:50;;;;;;;;;;;13.60;99.90;;;;;;4995340;28;19922;-68
2022/11/10 13:42:17;;;;;;;;;;;13.50;99.90;;;;;;4996451;28;19966;-68
2022/11/10 13:44:46;;;;;;;;;;;13.50;99.90;;;;;;5008970;28;19956;-68
2022/11/10 13:47:33;;;;;;;;;;;13.60;99.90;;;;;;5012732;28;19928;-69
2022/11/10 13:50:19;;;;;;;;;;;13.60;99.90;;;;;;5010900;28;19997;-67
2022/11/10 13:52:48;;;;;;;;;;;13.50;99.90;;;;;;5008238;28;19920;-67
2022/11/10 13:55:23;;;;;;;;;;;13.50;99.90;;;;;;5009130;28;19922;-70
2022/11/10 13:57:57;;;;;;;;;;;13.50;99.90;;;;;;5005258;28;19928;-67
2022/11/10 14:00:25;;;;;;;;;;;13.50;99.90;;;;;;5002681;28;19930;-66
2022/11/10 14:02:52;;;;;;;;;;;13.50;99.90;;;;;;5003141;28;19924;-68
2022/11/10 14:05:30;;;;;;;;;;;13.50;99.90;;;;;;4986905;28;19930;-68
2022/11/10 14:08:09;;;;;;;;;;;13.40;99.90;;;;;;4999994;28;20450;-68
2022/11/10 14:10:41;;;;;;;;;;;13.60;99.90;;;;;;5004938;28;19922;-68
2022/11/10 14:13:15;;;;;;;;;;;13.60;99.90;;;;;;4999627;28;19917;-68
2022/11/10 14:15:45;;;;;;;;;;;13.50;99.90;;;;;;4999555;28;19922;-68
2022/11/10 14:18:21;;;;;;;;;;;13.60;99.90;;;;;;4997333;28;20330;-70
2022/11/10 14:20:51;;;;;;;;;;;13.60;99.90;;;;;;4998269;28;19925;-67
2022/11/10 14:23:41;;;;;;;;;;;13.70;99.90;;;;;;5001389;28;19993;-65
2022/11/10 14:26:16;;;;;;;;;;;13.80;99.90;;;;;;4996806;28;19957;-66
2022/11/10 14:28:41;;;;;;;;;;;13.90;99.90;;;;;;4997924;28;20447;-65
2022/11/10 14:31:15;;;;;;;;;;;13.90;99.90;;;;;;5003933;28;19964;-66
2022/11/10 14:33:51;;;;;;;;;;;13.90;99.90;;;;;;5000977;28;19917;-65
2022/11/10 14:36:17;;;;;;;;;;;13.90;99.90;;;;;;5001077;28;20384;-66
2022/11/10 14:38:43;;;;;;;;;;;13.80;99.90;;;;;;5002927;28;19920;-66
2022/11/10 14:41:14;;;;;;;;;;;13.70;99.90;;;;;;5001748;28;19980;-66
2022/11/10 14:43:39;;;;;;;;;;;13.80;99.90;;;;;;4999227;28;20012;-65
2022/11/10 14:46:06;;;;;;;;;;;13.60;99.90;;;;;;4999463;28;20346;-66
2022/11/10 14:48:33;;;;;;;;;;;13.60;99.90;;;;;;5001899;28;19922;-67